createdAt,value
2018-10-19T00:01:09.922Z,14.00
2018-10-19T00:06:32.031Z,14.00
2018-10-19T00:11:53.903Z,13.90
2018-10-19T00:17:16.034Z,13.90
2018-10-19T00:22:37.854Z,13.90
2018-10-19T00:28:00.119Z,13.90
2018-10-19T00:33:22.118Z,13.80
2018-10-19T00:38:44.416Z,13.70
2018-10-19T00:44:07.050Z,13.70
2018-10-19T00:49:29.154Z,13.70
2018-10-19T00:54:51.343Z,13.70
2018-10-19T01:00:13.066Z,13.60
2018-10-19T01:05:35.255Z,13.60
2018-10-19T01:10:57.152Z,13.60
2018-10-19T01:16:19.603Z,13.50
2018-10-19T01:21:41.873Z,13.50
2018-10-19T01:27:03.840Z,13.40
2018-10-19T01:32:26.023Z,13.40
2018-10-19T01:37:48.031Z,13.30
2018-10-19T01:43:10.269Z,13.30
2018-10-19T01:48:32.275Z,13.30
2018-10-19T01:53:54.490Z,13.20
2018-10-19T01:59:16.490Z,13.10
2018-10-19T02:04:38.794Z,13.10
2018-10-19T02:10:00.665Z,13.10
2018-10-19T02:15:22.880Z,13.10
2018-10-19T02:20:46.083Z,13.10
2018-10-19T02:26:07.967Z,13.00
2018-10-19T02:31:30.167Z,13.00
2018-10-19T02:36:51.987Z,13.00
2018-10-19T02:42:14.172Z,13.00
2018-10-19T02:47:36.113Z,13.00
2018-10-19T02:52:58.338Z,13.00
2018-10-19T02:58:20.200Z,13.00
2018-10-19T03:03:42.314Z,13.00
2018-10-19T03:09:04.650Z,13.00
2018-10-19T03:14:27.079Z,13.00
2018-10-19T03:19:49.286Z,12.90
2018-10-19T03:25:11.875Z,13.00
2018-10-19T03:30:33.703Z,13.00
2018-10-19T03:35:55.916Z,13.00
2018-10-19T03:41:17.808Z,13.00
2018-10-19T03:46:39.964Z,13.00
2018-10-19T03:52:01.787Z,12.90
2018-10-19T03:57:24.029Z,12.90
2018-10-19T04:02:45.994Z,12.80
2018-10-19T04:08:08.163Z,12.80
2018-10-19T04:13:30.051Z,12.70
2018-10-19T04:18:52.215Z,12.70
2018-10-19T04:24:14.089Z,12.70
2018-10-19T04:29:36.222Z,12.70
2018-10-19T04:34:58.175Z,12.70
2018-10-19T04:40:22.958Z,12.70
2018-10-19T04:45:45.464Z,12.70
2018-10-19T04:51:07.796Z,12.60
2018-10-19T04:56:29.990Z,12.60
2018-10-19T05:01:52.754Z,12.60
2018-10-19T05:07:14.727Z,12.60
2018-10-19T05:12:37.151Z,12.60
2018-10-19T05:17:59.117Z,12.50
2018-10-19T05:23:21.371Z,12.40
2018-10-19T05:28:43.136Z,12.40
2018-10-19T05:34:05.385Z,12.40
2018-10-19T05:39:27.394Z,12.40
2018-10-19T05:44:49.712Z,12.30
2018-10-19T05:50:12.820Z,12.30
2018-10-19T05:55:34.566Z,12.30
2018-10-19T06:00:56.754Z,12.20
2018-10-19T06:06:18.631Z,12.20
2018-10-19T06:11:41.670Z,12.20
2018-10-19T06:17:04.148Z,12.20
2018-10-19T06:22:26.615Z,12.20
2018-10-19T06:27:48.487Z,12.20
2018-10-19T06:33:10.762Z,12.10
2018-10-19T06:38:32.783Z,12.10
2018-10-19T06:43:54.887Z,12.10
2018-10-19T06:49:17.190Z,12.10
2018-10-19T06:54:39.290Z,12.10
2018-10-19T07:00:01.622Z,12.10
2018-10-19T07:05:23.723Z,12.10
2018-10-19T07:10:47.213Z,12.20
2018-10-19T07:16:09.492Z,12.20
2018-10-19T07:21:31.646Z,12.20
2018-10-19T07:26:53.602Z,12.20
2018-10-19T07:32:15.919Z,12.30
2018-10-19T07:37:37.731Z,12.40
2018-10-19T07:42:59.929Z,12.50
2018-10-19T07:48:21.848Z,12.70
2018-10-19T07:53:43.973Z,12.70
2018-10-19T07:59:06.096Z,13.00
2018-10-19T08:04:28.155Z,13.10
2018-10-19T08:09:49.909Z,13.30
2018-10-19T08:15:12.138Z,13.40
2018-10-19T08:20:35.383Z,13.60
2018-10-19T08:25:57.589Z,13.70
2018-10-19T08:31:19.553Z,13.80
2018-10-19T08:36:41.738Z,14.00
2018-10-19T08:42:03.631Z,14.20
2018-10-19T08:47:25.926Z,14.30
2018-10-19T08:52:47.862Z,14.40
2018-10-19T08:58:10.008Z,14.50
2018-10-19T09:03:32.023Z,14.70
2018-10-19T09:08:54.281Z,14.70
2018-10-19T09:14:26.407Z,14.80
2018-10-19T09:19:49.138Z,14.90
2018-10-19T09:25:11.383Z,15.10
2018-10-19T09:30:33.410Z,15.30
2018-10-19T09:35:55.649Z,15.40
2018-10-19T09:41:18.021Z,15.60
2018-10-19T09:46:40.761Z,15.80
2018-10-19T09:52:03.107Z,16.00
2018-10-19T09:57:25.250Z,16.30
2018-10-19T10:02:47.759Z,16.60
2018-10-19T10:08:09.928Z,16.80
2018-10-19T10:13:32.281Z,16.90
2018-10-19T10:18:54.555Z,17.00
2018-10-19T10:24:16.694Z,17.40
2018-10-19T10:29:38.884Z,17.60
2018-10-19T10:35:00.878Z,17.90
2018-10-19T10:40:23.102Z,17.90
2018-10-19T10:45:44.963Z,17.80
2018-10-19T10:51:07.182Z,17.80
2018-10-19T10:56:29.903Z,18.10
2018-10-19T11:01:53.342Z,18.10
2018-10-19T11:07:15.664Z,18.00
2018-10-19T11:12:37.991Z,18.10
2018-10-19T11:18:00.029Z,18.20
2018-10-19T11:23:22.192Z,18.40
2018-10-19T11:28:44.818Z,18.40
2018-10-19T11:34:07.932Z,18.50
2018-10-19T11:39:29.658Z,18.60
2018-10-19T11:44:51.934Z,18.60
2018-10-19T11:50:13.766Z,18.60
2018-10-19T11:55:36.269Z,18.70
2018-10-19T12:00:58.663Z,18.70
2018-10-19T12:06:20.608Z,18.70
2018-10-19T12:11:42.354Z,18.80
2018-10-19T12:17:04.652Z,19.00
2018-10-19T12:22:26.447Z,19.10
2018-10-19T12:27:49.098Z,19.10
2018-10-19T12:33:12.099Z,19.20
2018-10-19T12:38:34.324Z,19.30
2018-10-19T12:43:56.739Z,19.30
2018-10-19T12:49:22.578Z,19.30
2018-10-19T12:54:45.230Z,19.30
2018-10-19T13:00:07.961Z,19.40
2018-10-19T13:05:30.272Z,19.40
2018-10-19T13:10:52.682Z,19.30
2018-10-19T13:16:15.568Z,19.30
2018-10-19T13:21:37.920Z,19.30
2018-10-19T13:27:00.310Z,19.30
2018-10-19T13:32:22.581Z,19.40
2018-10-19T13:37:44.874Z,19.40
2018-10-19T13:43:07.219Z,19.50
2018-10-19T13:48:29.530Z,19.50
2018-10-19T13:53:51.610Z,19.50
2018-10-19T13:59:13.423Z,19.50
2018-10-19T14:04:35.809Z,19.40
2018-10-19T14:10:00.545Z,19.40
2018-10-19T14:15:22.680Z,19.30
2018-10-19T14:20:44.418Z,19.30
2018-10-19T14:26:06.678Z,19.30
2018-10-19T14:31:28.457Z,19.50
2018-10-19T14:36:50.795Z,19.40
2018-10-19T14:42:14.213Z,19.30
2018-10-19T14:47:36.861Z,19.20
2018-10-19T14:52:59.074Z,19.30
2018-10-19T14:58:21.002Z,19.20
2018-10-19T15:03:43.225Z,19.20
2018-10-19T15:09:06.028Z,19.20
2018-10-19T15:14:28.967Z,19.10
2018-10-19T15:19:50.574Z,19.00
2018-10-19T15:25:13.149Z,19.00
2018-10-19T15:30:35.551Z,18.90
2018-10-19T15:35:57.847Z,18.90
2018-10-19T15:41:19.944Z,18.90
2018-10-19T15:46:41.908Z,18.80
2018-10-19T15:52:05.204Z,18.70
2018-10-19T15:57:27.098Z,18.60
2018-10-19T16:02:49.412Z,18.50
2018-10-19T16:08:11.605Z,18.40
2018-10-19T16:13:34.078Z,18.20
2018-10-19T16:18:56.276Z,18.10
2018-10-19T16:24:18.098Z,18.00
2018-10-19T16:29:40.199Z,17.80
2018-10-19T16:35:02.100Z,17.70
2018-10-19T16:40:24.354Z,17.50
2018-10-19T16:45:46.222Z,17.40
2018-10-19T16:51:08.794Z,17.20
2018-10-19T16:56:32.022Z,17.20
2018-10-19T17:01:54.153Z,17.10
2018-10-19T17:07:16.322Z,17.00
2018-10-19T17:12:42.721Z,16.80
2018-10-19T17:18:04.991Z,16.70
2018-10-19T17:23:30.670Z,16.60
2018-10-19T17:28:56.529Z,16.40
2018-10-19T17:34:22.104Z,16.30
2018-10-19T17:39:47.887Z,16.30
2018-10-19T17:45:11.255Z,16.20
2018-10-19T17:50:33.335Z,16.00
2018-10-19T17:55:55.299Z,15.90
2018-10-19T18:01:21.231Z,15.90
2018-10-19T18:06:43.280Z,15.80
2018-10-19T18:12:05.202Z,15.70
2018-10-19T18:17:27.370Z,15.60
2018-10-19T18:22:49.345Z,15.50
2018-10-19T18:28:11.844Z,15.40
2018-10-19T18:33:33.559Z,15.30
2018-10-19T18:38:55.720Z,15.30
2018-10-19T18:44:17.615Z,15.20
2018-10-19T18:49:40.586Z,15.10
2018-10-19T18:55:02.797Z,14.90
2018-10-19T19:00:27.964Z,14.90
2018-10-19T19:05:55.029Z,14.70
2018-10-19T19:11:17.454Z,14.60
2018-10-19T19:16:39.438Z,14.60
2018-10-19T19:22:02.396Z,14.50
2018-10-19T19:27:24.813Z,14.50
2018-10-19T19:32:52.715Z,14.40
2018-10-19T19:38:15.421Z,14.40
2018-10-19T19:43:37.367Z,14.20
2018-10-19T19:49:04.160Z,14.10
2018-10-19T19:54:25.979Z,14.10
2018-10-19T19:59:48.073Z,14.00
2018-10-19T20:05:10.865Z,14.00
2018-10-19T20:10:32.986Z,13.90
2018-10-19T20:15:55.222Z,13.80
2018-10-19T20:21:17.894Z,13.70
2018-10-19T20:26:41.433Z,13.60
2018-10-19T20:32:06.445Z,13.50
2018-10-19T20:37:29.831Z,13.40
2018-10-19T20:42:51.878Z,13.30
2018-10-19T20:48:14.025Z,13.30
2018-10-19T20:53:36.326Z,13.30
2018-10-19T20:58:58.587Z,13.30
2018-10-19T21:04:20.347Z,13.20
2018-10-19T21:09:42.382Z,13.20
2018-10-19T21:15:04.366Z,13.20
2018-10-19T21:20:26.528Z,13.20
2018-10-19T21:25:48.391Z,13.30
2018-10-19T21:31:10.619Z,13.30
2018-10-19T21:36:32.438Z,13.30
2018-10-19T21:41:55.963Z,13.30
2018-10-19T21:47:17.932Z,13.30
2018-10-19T21:52:40.262Z,13.30
2018-10-19T21:58:02.443Z,13.30
2018-10-19T22:03:24.418Z,13.30
2018-10-19T22:08:46.601Z,13.30
2018-10-19T22:14:09.101Z,13.20
2018-10-19T22:19:31.246Z,13.10
2018-10-19T22:24:53.213Z,13.10
2018-10-19T22:30:15.624Z,13.00
2018-10-19T22:35:37.902Z,13.10
2018-10-19T22:40:59.892Z,13.00
2018-10-19T22:46:22.154Z,13.00
2018-10-19T22:51:44.106Z,13.00
2018-10-19T22:57:07.020Z,13.00
2018-10-19T23:02:29.229Z,13.00
2018-10-19T23:07:51.150Z,13.10
2018-10-19T23:13:13.478Z,13.00
2018-10-19T23:18:35.671Z,13.10
2018-10-19T23:23:59.663Z,13.20
2018-10-19T23:29:21.303Z,13.00
2018-10-19T23:34:43.699Z,13.10
2018-10-19T23:40:05.399Z,13.00
2018-10-19T23:45:27.465Z,13.00
2018-10-19T23:50:49.382Z,12.90
2018-10-19T23:56:11.646Z,12.90
